Weather at Block Ranch Airport

Public forecast

Using degrees Fahrenheit for public forecast. Weather courtesy of forecast.io.

Closest aviation weather report (METAR) to Block Ranch Airport

Closest report is Sierra Blanca Regional Airport, 16.2 nm (30.1 km) SSW. Retrieved 2022/01/22 21:15 UTC (14 minutes ago):

KSRR 222115Z AUTO 15009KT 10SM CLR 02/M07 A3025 RMK AO2

Closest aviation forecast (TAF) to Block Ranch Airport

Closest forecast is Roswell Air Center Airport, 49.0 nm (90.8 km) ESE. Retrieved 2022/01/22 18:30 UTC (3 hours ago):

TAF KROW 221727Z 2218/2318 01007KT P6SM SKC FM222000 14008KT P6SM SCT050 FM230200 VRB06KT P6SM OVC035 FM230900 VRB06KT P6SM OVC025 FM231700 16006KT P6SM BKN035